Swansea, Tasmania

9:25 PM AEST on August 30, 2016 (GMT +1000)
The Grange Hills Swansea | | Change Station

Elev 79 ft 42.04 °S, 148.08 °E | Updated 1 minute ago

Mostly Cloudy
Mostly Cloudy
50.5 °F
Feels Like 50.5 °F
N
0.0
Wind Variable Wind from SSE
Gusts 0.0 mph

Today
High -- | Low -- °F
--% Chance of Precip.
Yesterday
High -- | Low -- °F
Precip. -- in
Pressure 29.98 in
Visibility 6.2 miles
Clouds Few 2000 ft
Mostly Cloudy 9000 ft
Dew Point 49 °F
Humidity 94%
Rainfall 0.00 in
Snow Depth Not available.
6:36 AM 5:40 PM
Waning Crescent, 4% visible
METAR YMHB 301100Z 29004KT 9999 FEW020 BKN090 11/09 Q1015
Pressure 29.98 in
Visibility 6.2 miles
Clouds Few 2000 ft
Mostly Cloudy 9000 ft
Dew Point 49 °F
Humidity 94%
Rainfall 0.00 in
Snow Depth Not available.
6:36 AM 5:40 PM
Waning Crescent, 4% visible
METAR YMHB 301100Z 29004KT 9999 FEW020 BKN090 11/09 Q1015

10-Day Weather Forecast

Almanac

Astronomy

Aug. 30, 2016 Rise Set
Actual Time
Civil Twilight
Nautical Twilight
Astronomical Twilight
Moon
Length of Visible Light
Length of Day
Tomorrow will be .
, % of the Moon is Illuminated

Today's Extremes

Country Highs Country Lows

Community

WunderPhotos

Upload Photos

1,935,804 photos uploaded!

WunderBlog® & News

Nearby

Air Quality

  Air Quality AQ Index Pollutant
Not available.

Snow Depth

Station Depth Elevation

Earthquake Activity

City Distance Mag. Time & Date
Minimum magnitude displayed is 2.5.

Coastal Water Temperatures

Place Temperature

Stations

Nearby Weather Stations

Station Location Temp. Windchill Dew Point Humidity Wind Precip. Elev Updated Type